Weather at Riam Sejawak Airstrip

Public forecast

Using degrees Celsius for public forecast. Weather courtesy of forecast.io.

Closest aviation weather report (METAR) to Riam Sejawak Airstrip

Closest report is Simanggang Airport, 26.5 nm (49.1 km) NE. Retrieved 2021/12/03 07:00 UTC (57 minutes ago):

WBGY 030700Z 00000KT 9999 -SHRA SCT020 29/26 Q1007

Closest aviation forecast (TAF) to Riam Sejawak Airstrip

Closest forecast is Kuching International Airport, 54.7 nm (101.2 km) NW. Retrieved 2021/12/03 06:15 UTC (2 hours ago):

TAF WBGG 030500Z 0306/0406 26006KT 9999 SCT020 TEMPO 0307/0311 4000 TSRA FEW015CB